sensor_id;sensor_type;location;lat;lon;timestamp;temperature;humidity
30764;DHT22;17497;51.476;7.770;2024-03-25T00:01:14;5.20;99.90
30764;DHT22;17497;51.476;7.770;2024-03-25T00:03:40;5.10;99.90
30764;DHT22;17497;51.476;7.770;2024-03-25T00:06:05;5.10;99.90
30764;DHT22;17497;51.476;7.770;2024-03-25T00:08:32;5.10;99.90
30764;DHT22;17497;51.476;7.770;2024-03-25T00:10:57;5.10;99.90
30764;DHT22;17497;51.476;7.770;2024-03-25T00:13:23;5.10;99.90
30764;DHT22;17497;51.476;7.770;2024-03-25T00:15:49;5.10;99.90
30764;DHT22;17497;51.476;7.770;2024-03-25T00:18:15;5.00;99.90
30764;DHT22;17497;51.476;7.770;2024-03-25T00:20:40;5.10;99.90
30764;DHT22;17497;51.476;7.770;2024-03-25T00:23:06;5.00;99.90
30764;DHT22;17497;51.476;7.770;2024-03-25T00:25:32;5.10;99.90
30764;DHT22;17497;51.476;7.770;2024-03-25T00:27:58;5.10;99.90
30764;DHT22;17497;51.476;7.770;2024-03-25T00:30:24;5.00;99.90
30764;DHT22;17497;51.476;7.770;2024-03-25T00:32:50;5.00;99.90
30764;DHT22;17497;51.476;7.770;2024-03-25T00:35:16;4.90;99.90
30764;DHT22;17497;51.476;7.770;2024-03-25T00:37:41;4.90;99.90
30764;DHT22;17497;51.476;7.770;2024-03-25T00:40:07;4.90;99.90
30764;DHT22;17497;51.476;7.770;2024-03-25T00:42:33;4.90;99.90
30764;DHT22;17497;51.476;7.770;2024-03-25T00:44:59;4.90;99.90
30764;DHT22;17497;51.476;7.770;2024-03-25T00:47:25;4.90;99.90
30764;DHT22;17497;51.476;7.770;2024-03-25T00:49:51;4.80;99.90
30764;DHT22;17497;51.476;7.770;2024-03-25T00:52:17;4.90;99.90
30764;DHT22;17497;51.476;7.770;2024-03-25T00:54:43;4.90;99.90
30764;DHT22;17497;51.476;7.770;2024-03-25T00:57:08;4.80;99.90
30764;DHT22;17497;51.476;7.770;2024-03-25T00:59:34;4.80;99.90
30764;DHT22;17497;51.476;7.770;2024-03-25T01:02:00;4.80;99.90
30764;DHT22;17497;51.476;7.770;2024-03-25T01:04:26;4.80;99.90
30764;DHT22;17497;51.476;7.770;2024-03-25T01:06:52;4.80;99.90
30764;DHT22;17497;51.476;7.770;2024-03-25T01:09:18;4.80;99.90
30764;DHT22;17497;51.476;7.770;2024-03-25T01:11:44;4.80;99.90
30764;DHT22;17497;51.476;7.770;2024-03-25T01:14:09;4.70;99.90
30764;DHT22;17497;51.476;7.770;2024-03-25T01:16:35;4.70;99.90
30764;DHT22;17497;51.476;7.770;2024-03-25T01:19:01;4.60;99.90
30764;DHT22;17497;51.476;7.770;2024-03-25T01:21:26;4.60;99.90
30764;DHT22;17497;51.476;7.770;2024-03-25T01:23:52;4.60;99.90
30764;DHT22;17497;51.476;7.770;2024-03-25T01:26:18;4.60;99.90
30764;DHT22;17497;51.476;7.770;2024-03-25T01:28:43;4.60;99.90
30764;DHT22;17497;51.476;7.770;2024-03-25T01:31:09;4.60;99.90
30764;DHT22;17497;51.476;7.770;2024-03-25T01:33:35;4.60;99.90
30764;DHT22;17497;51.476;7.770;2024-03-25T01:36:00;4.60;99.90
30764;DHT22;17497;51.476;7.770;2024-03-25T01:38:26;4.60;99.90
30764;DHT22;17497;51.476;7.770;2024-03-25T01:40:52;4.70;99.90
30764;DHT22;17497;51.476;7.770;2024-03-25T01:43:18;4.70;99.90
30764;DHT22;17497;51.476;7.770;2024-03-25T01:45:43;4.60;99.90
30764;DHT22;17497;51.476;7.770;2024-03-25T01:48:09;4.60;99.90
30764;DHT22;17497;51.476;7.770;2024-03-25T01:50:37;4.60;99.90
30764;DHT22;17497;51.476;7.770;2024-03-25T01:53:03;4.70;99.90
30764;DHT22;17497;51.476;7.770;2024-03-25T01:55:30;4.60;99.90
30764;DHT22;17497;51.476;7.770;2024-03-25T01:57:56;4.60;99.90
30764;DHT22;17497;51.476;7.770;2024-03-25T02:00:22;4.70;99.90
30764;DHT22;17497;51.476;7.770;2024-03-25T02:02:49;4.60;99.90
30764;DHT22;17497;51.476;7.770;2024-03-25T02:05:16;4.60;99.90
30764;DHT22;17497;51.476;7.770;2024-03-25T02:07:42;4.60;99.90
30764;DHT22;17497;51.476;7.770;2024-03-25T02:10:08;4.60;99.90
30764;DHT22;17497;51.476;7.770;2024-03-25T02:12:43;4.60;99.90
30764;DHT22;17497;51.476;7.770;2024-03-25T02:15:09;4.60;99.90
30764;DHT22;17497;51.476;7.770;2024-03-25T02:17:35;4.60;99.90
30764;DHT22;17497;51.476;7.770;2024-03-25T02:20:01;4.50;99.90
30764;DHT22;17497;51.476;7.770;2024-03-25T02:22:28;4.50;99.90
30764;DHT22;17497;51.476;7.770;2024-03-25T02:24:55;4.50;99.90
30764;DHT22;17497;51.476;7.770;2024-03-25T02:27:22;4.50;99.90
30764;DHT22;17497;51.476;7.770;2024-03-25T02:29:47;4.50;99.90
30764;DHT22;17497;51.476;7.770;2024-03-25T02:32:13;4.50;99.90
30764;DHT22;17497;51.476;7.770;2024-03-25T02:34:39;4.50;99.90
30764;DHT22;17497;51.476;7.770;2024-03-25T02:37:06;4.40;99.90
30764;DHT22;17497;51.476;7.770;2024-03-25T02:39:32;4.40;99.90
30764;DHT22;17497;51.476;7.770;2024-03-25T02:41:59;4.40;99.90
30764;DHT22;17497;51.476;7.770;2024-03-25T02:44:25;4.40;99.90
30764;DHT22;17497;51.476;7.770;2024-03-25T02:46:50;4.40;99.90
30764;DHT22;17497;51.476;7.770;2024-03-25T02:49:17;4.40;99.90
30764;DHT22;17497;51.476;7.770;2024-03-25T02:51:43;4.40;99.90
30764;DHT22;17497;51.476;7.770;2024-03-25T02:54:09;4.40;99.90
30764;DHT22;17497;51.476;7.770;2024-03-25T02:56:34;4.40;99.90
30764;DHT22;17497;51.476;7.770;2024-03-25T02:59:01;4.40;99.90
30764;DHT22;17497;51.476;7.770;2024-03-25T03:01:27;4.40;99.90
30764;DHT22;17497;51.476;7.770;2024-03-25T03:03:52;4.30;99.90
30764;DHT22;17497;51.476;7.770;2024-03-25T03:06:18;4.30;99.90
30764;DHT22;17497;51.476;7.770;2024-03-25T03:08:44;4.30;99.90
30764;DHT22;17497;51.476;7.770;2024-03-25T03:11:10;4.30;99.90
30764;DHT22;17497;51.476;7.770;2024-03-25T03:13:35;4.30;99.90
30764;DHT22;17497;51.476;7.770;2024-03-25T03:16:01;4.20;99.90
30764;DHT22;17497;51.476;7.770;2024-03-25T03:18:27;4.20;99.90
30764;DHT22;17497;51.476;7.770;2024-03-25T03:20:53;4.20;99.90
30764;DHT22;17497;51.476;7.770;2024-03-25T03:23:21;4.10;99.90
30764;DHT22;17497;51.476;7.770;2024-03-25T03:25:47;4.10;99.90
30764;DHT22;17497;51.476;7.770;2024-03-25T03:28:13;4.10;99.90
30764;DHT22;17497;51.476;7.770;2024-03-25T03:30:40;4.20;99.90
30764;DHT22;17497;51.476;7.770;2024-03-25T03:33:06;4.20;99.90
30764;DHT22;17497;51.476;7.770;2024-03-25T03:35:35;4.20;99.90
30764;DHT22;17497;51.476;7.770;2024-03-25T03:38:01;4.20;99.90
30764;DHT22;17497;51.476;7.770;2024-03-25T03:40:28;4.20;99.90
30764;DHT22;17497;51.476;7.770;2024-03-25T03:42:53;4.20;99.90
30764;DHT22;17497;51.476;7.770;2024-03-25T03:45:19;4.10;99.90
30764;DHT22;17497;51.476;7.770;2024-03-25T03:47:45;4.20;99.90
30764;DHT22;17497;51.476;7.770;2024-03-25T03:50:11;4.20;99.90
30764;DHT22;17497;51.476;7.770;2024-03-25T03:52:36;4.30;99.90
30764;DHT22;17497;51.476;7.770;2024-03-25T03:55:02;4.30;99.90
30764;DHT22;17497;51.476;7.770;2024-03-25T03:57:30;4.30;99.90
30764;DHT22;17497;51.476;7.770;2024-03-25T03:59:56;4.30;99.90
30764;DHT22;17497;51.476;7.770;2024-03-25T04:02:22;4.40;99.90
30764;DHT22;17497;51.476;7.770;2024-03-25T04:04:49;4.40;99.90
30764;DHT22;17497;51.476;7.770;2024-03-25T04:07:15;4.40;99.90
30764;DHT22;17497;51.476;7.770;2024-03-25T04:09:40;4.40;99.90
30764;DHT22;17497;51.476;7.770;2024-03-25T04:12:06;4.40;99.90
30764;DHT22;17497;51.476;7.770;2024-03-25T04:14:32;4.40;99.90
30764;DHT22;17497;51.476;7.770;2024-03-25T04:16:58;4.40;99.90
30764;DHT22;17497;51.476;7.770;2024-03-25T04:19:24;4.40;99.90
30764;DHT22;17497;51.476;7.770;2024-03-25T04:21:50;4.40;99.90
30764;DHT22;17497;51.476;7.770;2024-03-25T04:24:16;4.40;99.90
30764;DHT22;17497;51.476;7.770;2024-03-25T04:26:42;4.40;99.90
30764;DHT22;17497;51.476;7.770;2024-03-25T04:29:08;4.40;99.90
30764;DHT22;17497;51.476;7.770;2024-03-25T04:31:34;4.40;99.90
30764;DHT22;17497;51.476;7.770;2024-03-25T04:33:59;4.40;99.90
30764;DHT22;17497;51.476;7.770;2024-03-25T04:36:25;4.50;99.90
30764;DHT22;17497;51.476;7.770;2024-03-25T04:38:51;4.50;99.90
30764;DHT22;17497;51.476;7.770;2024-03-25T04:41:16;4.50;99.90
30764;DHT22;17497;51.476;7.770;2024-03-25T04:43:42;4.50;99.90
30764;DHT22;17497;51.476;7.770;2024-03-25T04:46:08;4.40;99.90
30764;DHT22;17497;51.476;7.770;2024-03-25T04:48:34;4.50;99.90
30764;DHT22;17497;51.476;7.770;2024-03-25T04:50:59;4.40;99.90
30764;DHT22;17497;51.476;7.770;2024-03-25T04:53:25;4.50;99.90
30764;DHT22;17497;51.476;7.770;2024-03-25T04:55:51;4.40;99.90
30764;DHT22;17497;51.476;7.770;2024-03-25T04:58:17;4.40;99.90
30764;DHT22;17497;51.476;7.770;2024-03-25T05:00:43;4.40;99.90
30764;DHT22;17497;51.476;7.770;2024-03-25T05:03:08;4.40;99.90
30764;DHT22;17497;51.476;7.770;2024-03-25T05:05:35;4.40;99.90
30764;DHT22;17497;51.476;7.770;2024-03-25T05:08:01;4.50;99.90
30764;DHT22;17497;51.476;7.770;2024-03-25T05:10:28;4.40;99.90
30764;DHT22;17497;51.476;7.770;2024-03-25T05:12:54;4.40;99.90
30764;DHT22;17497;51.476;7.770;2024-03-25T05:15:21;4.50;99.90
30764;DHT22;17497;51.476;7.770;2024-03-25T05:17:46;4.40;99.90
30764;DHT22;17497;51.476;7.770;2024-03-25T05:20:12;4.30;99.90
30764;DHT22;17497;51.476;7.770;2024-03-25T05:22:38;4.30;99.90
30764;DHT22;17497;51.476;7.770;2024-03-25T05:25:04;4.30;99.90
30764;DHT22;17497;51.476;7.770;2024-03-25T05:27:29;4.20;99.90
30764;DHT22;17497;51.476;7.770;2024-03-25T05:29:55;4.20;99.90
30764;DHT22;17497;51.476;7.770;2024-03-25T05:32:21;4.20;99.90
30764;DHT22;17497;51.476;7.770;2024-03-25T05:34:47;4.10;99.90
30764;DHT22;17497;51.476;7.770;2024-03-25T05:37:14;4.20;99.90
30764;DHT22;17497;51.476;7.770;2024-03-25T05:39:39;4.10;99.90
30764;DHT22;17497;51.476;7.770;2024-03-25T05:42:05;4.20;99.90
30764;DHT22;17497;51.476;7.770;2024-03-25T05:44:31;4.20;99.90
30764;DHT22;17497;51.476;7.770;2024-03-25T05:46:57;4.10;99.90
30764;DHT22;17497;51.476;7.770;2024-03-25T05:49:22;4.10;99.90
30764;DHT22;17497;51.476;7.770;2024-03-25T05:51:48;4.10;99.90
30764;DHT22;17497;51.476;7.770;2024-03-25T05:54:14;4.10;99.90
30764;DHT22;17497;51.476;7.770;2024-03-25T05:56:40;4.10;99.90
30764;DHT22;17497;51.476;7.770;2024-03-25T05:59:05;4.10;99.90
30764;DHT22;17497;51.476;7.770;2024-03-25T06:01:31;4.10;99.90
30764;DHT22;17497;51.476;7.770;2024-03-25T06:03:57;4.20;99.90
30764;DHT22;17497;51.476;7.770;2024-03-25T06:09:14;4.10;99.90
30764;DHT22;17497;51.476;7.770;2024-03-25T06:11:39;4.20;99.90
30764;DHT22;17497;51.476;7.770;2024-03-25T06:14:05;4.30;99.90
30764;DHT22;17497;51.476;7.770;2024-03-25T06:16:31;4.30;99.90
30764;DHT22;17497;51.476;7.770;2024-03-25T06:18:56;4.40;99.90
30764;DHT22;17497;51.476;7.770;2024-03-25T06:21:22;4.40;99.90
30764;DHT22;17497;51.476;7.770;2024-03-25T06:23:48;4.40;99.90
30764;DHT22;17497;51.476;7.770;2024-03-25T06:26:17;4.50;99.90
30764;DHT22;17497;51.476;7.770;2024-03-25T06:28:43;4.50;99.90
30764;DHT22;17497;51.476;7.770;2024-03-25T06:31:08;4.60;99.90
30764;DHT22;17497;51.476;7.770;2024-03-25T06:33:53;4.60;99.90
30764;DHT22;17497;51.476;7.770;2024-03-25T06:36:37;4.70;99.90
30764;DHT22;17497;51.476;7.770;2024-03-25T06:39:03;4.70;99.90
30764;DHT22;17497;51.476;7.770;2024-03-25T06:41:29;4.70;99.90
30764;DHT22;17497;51.476;7.770;2024-03-25T06:43:54;4.70;99.90
30764;DHT22;17497;51.476;7.770;2024-03-25T06:46:20;4.70;99.90
30764;DHT22;17497;51.476;7.770;2024-03-25T06:48:46;4.80;99.90
30764;DHT22;17497;51.476;7.770;2024-03-25T06:51:11;4.90;99.90
30764;DHT22;17497;51.476;7.770;2024-03-25T06:53:37;5.00;99.90
30764;DHT22;17497;51.476;7.770;2024-03-25T06:56:03;5.00;99.90
30764;DHT22;17497;51.476;7.770;2024-03-25T06:58:28;5.00;99.90
30764;DHT22;17497;51.476;7.770;2024-03-25T07:00:55;5.00;99.90
30764;DHT22;17497;51.476;7.770;2024-03-25T07:03:22;5.20;99.90
30764;DHT22;17497;51.476;7.770;2024-03-25T07:05:48;5.10;99.90
30764;DHT22;17497;51.476;7.770;2024-03-25T07:08:18;5.20;99.90
30764;DHT22;17497;51.476;7.770;2024-03-25T07:10:45;5.30;99.90
30764;DHT22;17497;51.476;7.770;2024-03-25T07:13:11;5.40;99.90
30764;DHT22;17497;51.476;7.770;2024-03-25T07:15:37;5.40;99.90
30764;DHT22;17497;51.476;7.770;2024-03-25T07:18:02;5.50;99.90
30764;DHT22;17497;51.476;7.770;2024-03-25T07:20:29;5.50;99.90
30764;DHT22;17497;51.476;7.770;2024-03-25T07:22:55;5.50;99.90
30764;DHT22;17497;51.476;7.770;2024-03-25T07:25:21;5.50;99.90
30764;DHT22;17497;51.476;7.770;2024-03-25T07:27:47;5.50;99.90
30764;DHT22;17497;51.476;7.770;2024-03-25T07:30:14;5.50;99.90
30764;DHT22;17497;51.476;7.770;2024-03-25T07:32:40;5.60;99.90
30764;DHT22;17497;51.476;7.770;2024-03-25T07:35:05;5.60;99.90
30764;DHT22;17497;51.476;7.770;2024-03-25T07:37:33;5.60;99.90
30764;DHT22;17497;51.476;7.770;2024-03-25T07:39:59;5.70;99.90
30764;DHT22;17497;51.476;7.770;2024-03-25T07:42:25;5.70;99.90
30764;DHT22;17497;51.476;7.770;2024-03-25T07:44:50;5.90;99.90
30764;DHT22;17497;51.476;7.770;2024-03-25T07:47:16;5.90;99.90
30764;DHT22;17497;51.476;7.770;2024-03-25T07:49:42;5.90;99.90
30764;DHT22;17497;51.476;7.770;2024-03-25T07:52:08;5.80;99.90
30764;DHT22;17497;51.476;7.770;2024-03-25T07:54:33;5.90;99.90
30764;DHT22;17497;51.476;7.770;2024-03-25T07:56:59;5.90;99.90
30764;DHT22;17497;51.476;7.770;2024-03-25T08:02:24;6.20;99.90
30764;DHT22;17497;51.476;7.770;2024-03-25T08:04:49;6.10;99.90
30764;DHT22;17497;51.476;7.770;2024-03-25T08:07:15;6.10;99.90
30764;DHT22;17497;51.476;7.770;2024-03-25T08:09:41;6.20;99.90
30764;DHT22;17497;51.476;7.770;2024-03-25T08:12:07;6.20;99.90
30764;DHT22;17497;51.476;7.770;2024-03-25T08:14:32;6.20;99.90
30764;DHT22;17497;51.476;7.770;2024-03-25T08:16:58;6.30;99.90
30764;DHT22;17497;51.476;7.770;2024-03-25T08:19:24;6.40;99.90
30764;DHT22;17497;51.476;7.770;2024-03-25T08:21:50;6.70;99.90
30764;DHT22;17497;51.476;7.770;2024-03-25T08:24:16;6.70;99.90
30764;DHT22;17497;51.476;7.770;2024-03-25T08:26:42;6.80;99.90
30764;DHT22;17497;51.476;7.770;2024-03-25T08:29:07;7.00;99.90
30764;DHT22;17497;51.476;7.770;2024-03-25T08:31:35;7.10;99.90
30764;DHT22;17497;51.476;7.770;2024-03-25T08:34:01;7.10;99.90
30764;DHT22;17497;51.476;7.770;2024-03-25T08:36:27;7.00;99.90
30764;DHT22;17497;51.476;7.770;2024-03-25T08:38:53;6.90;99.90
30764;DHT22;17497;51.476;7.770;2024-03-25T08:41:21;7.00;99.90
30764;DHT22;17497;51.476;7.770;2024-03-25T08:43:47;7.10;99.90
30764;DHT22;17497;51.476;7.770;2024-03-25T08:46:13;7.40;99.90
30764;DHT22;17497;51.476;7.770;2024-03-25T08:48:38;7.30;99.90
30764;DHT22;17497;51.476;7.770;2024-03-25T08:51:04;7.40;99.90
30764;DHT22;17497;51.476;7.770;2024-03-25T08:53:30;7.50;99.90
30764;DHT22;17497;51.476;7.770;2024-03-25T08:55:55;7.40;99.90
30764;DHT22;17497;51.476;7.770;2024-03-25T08:58:21;7.40;99.90
30764;DHT22;17497;51.476;7.770;2024-03-25T09:00:47;7.40;99.90
30764;DHT22;17497;51.476;7.770;2024-03-25T09:03:12;7.50;99.90
30764;DHT22;17497;51.476;7.770;2024-03-25T09:05:38;7.50;99.90
30764;DHT22;17497;51.476;7.770;2024-03-25T09:08:05;7.30;99.90
30764;DHT22;17497;51.476;7.770;2024-03-25T09:10:31;7.00;99.90
30764;DHT22;17497;51.476;7.770;2024-03-25T09:13:15;6.80;99.90
30764;DHT22;17497;51.476;7.770;2024-03-25T09:15:41;6.80;99.90
30764;DHT22;17497;51.476;7.770;2024-03-25T09:18:19;6.90;99.90
30764;DHT22;17497;51.476;7.770;2024-03-25T09:20:45;7.10;99.90
30764;DHT22;17497;51.476;7.770;2024-03-25T09:23:11;7.40;99.90
30764;DHT22;17497;51.476;7.770;2024-03-25T09:25:37;7.70;99.90
30764;DHT22;17497;51.476;7.770;2024-03-25T09:28:02;8.00;45.90
30764;DHT22;17497;51.476;7.770;2024-03-25T09:30:28;7.90;56.70
30764;DHT22;17497;51.476;7.770;2024-03-25T09:32:54;8.10;99.90
30764;DHT22;17497;51.476;7.770;2024-03-25T09:35:19;8.30;82.40
30764;DHT22;17497;51.476;7.770;2024-03-25T09:37:45;8.10;66.70
30764;DHT22;17497;51.476;7.770;2024-03-25T09:40:11;8.20;99.90
30764;DHT22;17497;51.476;7.770;2024-03-25T09:42:47;8.00;95.30
30764;DHT22;17497;51.476;7.770;2024-03-25T09:45:13;7.90;60.20
30764;DHT22;17497;51.476;7.770;2024-03-25T09:47:40;8.00;99.90
30764;DHT22;17497;51.476;7.770;2024-03-25T09:50:08;7.80;99.90
30764;DHT22;17497;51.476;7.770;2024-03-25T09:52:35;7.70;99.90
30764;DHT22;17497;51.476;7.770;2024-03-25T09:55:00;7.70;99.90
30764;DHT22;17497;51.476;7.770;2024-03-25T09:57:26;7.60;99.90
30764;DHT22;17497;51.476;7.770;2024-03-25T09:59:52;7.70;99.90
30764;DHT22;17497;51.476;7.770;2024-03-25T10:02:18;7.70;99.90
30764;DHT22;17497;51.476;7.770;2024-03-25T10:04:48;7.90;99.90
30764;DHT22;17497;51.476;7.770;2024-03-25T10:07:23;8.10;99.90
30764;DHT22;17497;51.476;7.770;2024-03-25T10:09:49;8.20;99.90
30764;DHT22;17497;51.476;7.770;2024-03-25T10:12:15;8.60;90.60
30764;DHT22;17497;51.476;7.770;2024-03-25T10:14:40;8.50;38.20
30764;DHT22;17497;51.476;7.770;2024-03-25T10:17:06;8.90;39.70
30764;DHT22;17497;51.476;7.770;2024-03-25T10:19:32;9.20;35.30
30764;DHT22;17497;51.476;7.770;2024-03-25T10:22:05;9.40;7.90
30764;DHT22;17497;51.476;7.770;2024-03-25T10:24:43;9.60;1.00
30764;DHT22;17497;51.476;7.770;2024-03-25T10:27:10;9.40;19.60
30764;DHT22;17497;51.476;7.770;2024-03-25T10:29:37;9.00;84.00
30764;DHT22;17497;51.476;7.770;2024-03-25T10:32:03;8.90;81.30
30764;DHT22;17497;51.476;7.770;2024-03-25T10:34:30;8.70;94.00
30764;DHT22;17497;51.476;7.770;2024-03-25T10:36:56;8.90;99.90
30764;DHT22;17497;51.476;7.770;2024-03-25T10:39:26;9.50;99.90
30764;DHT22;17497;51.476;7.770;2024-03-25T10:41:55;9.90;34.40
30764;DHT22;17497;51.476;7.770;2024-03-25T10:44:21;10.30;72.90
30764;DHT22;17497;51.476;7.770;2024-03-25T10:46:48;10.60;1.00
30764;DHT22;17497;51.476;7.770;2024-03-25T10:49:24;10.90;9.90
30764;DHT22;17497;51.476;7.770;2024-03-25T10:51:52;11.80;1.00
30764;DHT22;17497;51.476;7.770;2024-03-25T10:54:18;12.60;1.00
30764;DHT22;17497;51.476;7.770;2024-03-25T10:56:44;11.90;1.00
30764;DHT22;17497;51.476;7.770;2024-03-25T10:59:10;12.30;1.00
30764;DHT22;17497;51.476;7.770;2024-03-25T11:01:36;12.40;1.00
30764;DHT22;17497;51.476;7.770;2024-03-25T11:04:02;12.00;1.00
30764;DHT22;17497;51.476;7.770;2024-03-25T11:06:33;11.50;1.00
30764;DHT22;17497;51.476;7.770;2024-03-25T11:08:59;10.90;1.00
30764;DHT22;17497;51.476;7.770;2024-03-25T11:11:34;10.70;1.00
30764;DHT22;17497;51.476;7.770;2024-03-25T11:14:03;10.70;1.00
30764;DHT22;17497;51.476;7.770;2024-03-25T11:16:29;10.30;1.00
30764;DHT22;17497;51.476;7.770;2024-03-25T11:18:55;10.90;1.00
30764;DHT22;17497;51.476;7.770;2024-03-25T11:21:25;11.90;1.00
30764;DHT22;17497;51.476;7.770;2024-03-25T11:23:51;12.20;99.90
30764;DHT22;17497;51.476;7.770;2024-03-25T11:26:26;12.60;99.90
30764;DHT22;17497;51.476;7.770;2024-03-25T11:28:56;13.80;99.90
30764;DHT22;17497;51.476;7.770;2024-03-25T11:31:22;13.70;99.90
30764;DHT22;17497;51.476;7.770;2024-03-25T11:33:50;13.50;99.90
30764;DHT22;17497;51.476;7.770;2024-03-25T11:36:16;13.50;90.10
30764;DHT22;17497;51.476;7.770;2024-03-25T11:38:44;14.30;1.00
30764;DHT22;17497;51.476;7.770;2024-03-25T11:41:10;14.90;99.90
30764;DHT22;17497;51.476;7.770;2024-03-25T11:43:36;14.80;99.90
30764;DHT22;17497;51.476;7.770;2024-03-25T11:46:02;15.20;99.90
30764;DHT22;17497;51.476;7.770;2024-03-25T11:48:34;15.70;1.00
30764;DHT22;17497;51.476;7.770;2024-03-25T11:51:00;16.10;1.00
30764;DHT22;17497;51.476;7.770;2024-03-25T11:53:26;14.50;1.00
30764;DHT22;17497;51.476;7.770;2024-03-25T11:55:53;15.30;99.90
30764;DHT22;17497;51.476;7.770;2024-03-25T11:58:18;14.80;43.10
30764;DHT22;17497;51.476;7.770;2024-03-25T12:00:44;15.60;99.90
30764;DHT22;17497;51.476;7.770;2024-03-25T12:03:11;16.50;1.00
30764;DHT22;17497;51.476;7.770;2024-03-25T12:05:38;16.30;99.90
30764;DHT22;17497;51.476;7.770;2024-03-25T12:08:07;16.50;1.00
30764;DHT22;17497;51.476;7.770;2024-03-25T12:10:34;17.50;99.90
30764;DHT22;17497;51.476;7.770;2024-03-25T12:13:18;17.10;1.00
30764;DHT22;17497;51.476;7.770;2024-03-25T12:15:44;17.00;1.00
30764;DHT22;17497;51.476;7.770;2024-03-25T12:18:10;16.80;99.90
30764;DHT22;17497;51.476;7.770;2024-03-25T12:20:36;16.40;99.90
30764;DHT22;17497;51.476;7.770;2024-03-25T12:23:02;17.50;14.70
30764;DHT22;17497;51.476;7.770;2024-03-25T12:25:27;18.10;81.50
30764;DHT22;17497;51.476;7.770;2024-03-25T12:27:53;18.10;99.90
30764;DHT22;17497;51.476;7.770;2024-03-25T12:30:19;18.20;99.90
30764;DHT22;17497;51.476;7.770;2024-03-25T12:32:45;17.40;99.90
30764;DHT22;17497;51.476;7.770;2024-03-25T12:35:14;16.40;99.90
30764;DHT22;17497;51.476;7.770;2024-03-25T12:37:42;16.00;99.90
30764;DHT22;17497;51.476;7.770;2024-03-25T12:40:09;15.40;1.00
30764;DHT22;17497;51.476;7.770;2024-03-25T12:42:36;14.60;40.50
30764;DHT22;17497;51.476;7.770;2024-03-25T12:45:02;14.40;24.40
30764;DHT22;17497;51.476;7.770;2024-03-25T12:47:29;15.20;1.00
30764;DHT22;17497;51.476;7.770;2024-03-25T12:49:54;16.40;1.00
30764;DHT22;17497;51.476;7.770;2024-03-25T12:52:22;17.80;1.00
30764;DHT22;17497;51.476;7.770;2024-03-25T12:54:48;17.10;1.00
30764;DHT22;17497;51.476;7.770;2024-03-25T12:57:14;17.00;99.90
30764;DHT22;17497;51.476;7.770;2024-03-25T12:59:40;18.10;1.00
30764;DHT22;17497;51.476;7.770;2024-03-25T13:02:06;19.30;99.90
30764;DHT22;17497;51.476;7.770;2024-03-25T13:04:34;20.40;99.90
30764;DHT22;17497;51.476;7.770;2024-03-25T13:07:03;18.70;99.90
30764;DHT22;17497;51.476;7.770;2024-03-25T13:09:29;19.30;1.00
30764;DHT22;17497;51.476;7.770;2024-03-25T13:11:56;19.80;99.90
30764;DHT22;17497;51.476;7.770;2024-03-25T13:14:22;19.50;1.00
30764;DHT22;17497;51.476;7.770;2024-03-25T13:16:48;19.20;1.00
30764;DHT22;17497;51.476;7.770;2024-03-25T13:19:13;20.10;1.00
30764;DHT22;17497;51.476;7.770;2024-03-25T13:21:39;19.50;99.90
30764;DHT22;17497;51.476;7.770;2024-03-25T13:24:05;19.00;1.00
30764;DHT22;17497;51.476;7.770;2024-03-25T13:26:31;17.80;1.00
30764;DHT22;17497;51.476;7.770;2024-03-25T13:28:56;17.40;99.90
30764;DHT22;17497;51.476;7.770;2024-03-25T13:31:22;17.90;1.00
30764;DHT22;17497;51.476;7.770;2024-03-25T13:33:48;19.40;48.00
30764;DHT22;17497;51.476;7.770;2024-03-25T13:36:13;20.50;99.90
30764;DHT22;17497;51.476;7.770;2024-03-25T13:38:39;21.20;1.00
30764;DHT22;17497;51.476;7.770;2024-03-25T13:41:05;21.00;1.00
30764;DHT22;17497;51.476;7.770;2024-03-25T13:43:31;20.20;1.00
30764;DHT22;17497;51.476;7.770;2024-03-25T13:45:57;20.40;1.00
30764;DHT22;17497;51.476;7.770;2024-03-25T13:48:23;19.70;99.90
30764;DHT22;17497;51.476;7.770;2024-03-25T13:50:48;18.40;99.90
30764;DHT22;17497;51.476;7.770;2024-03-25T13:53:14;17.80;99.90
30764;DHT22;17497;51.476;7.770;2024-03-25T13:55:40;17.30;99.90
30764;DHT22;17497;51.476;7.770;2024-03-25T13:58:05;16.70;99.90
30764;DHT22;17497;51.476;7.770;2024-03-25T14:00:33;16.20;99.90
30764;DHT22;17497;51.476;7.770;2024-03-25T14:03:00;16.10;99.90
30764;DHT22;17497;51.476;7.770;2024-03-25T14:05:26;15.70;1.00
30764;DHT22;17497;51.476;7.770;2024-03-25T14:07:52;15.20;1.00
30764;DHT22;17497;51.476;7.770;2024-03-25T14:10:17;15.00;99.90
30764;DHT22;17497;51.476;7.770;2024-03-25T14:12:43;15.00;1.00
30764;DHT22;17497;51.476;7.770;2024-03-25T14:15:09;15.70;1.00
30764;DHT22;17497;51.476;7.770;2024-03-25T14:17:35;16.00;99.90
30764;DHT22;17497;51.476;7.770;2024-03-25T14:20:01;16.20;99.90
30764;DHT22;17497;51.476;7.770;2024-03-25T14:22:26;16.40;99.90
30764;DHT22;17497;51.476;7.770;2024-03-25T14:24:52;16.60;99.90
30764;DHT22;17497;51.476;7.770;2024-03-25T14:27:25;15.90;1.00
30764;DHT22;17497;51.476;7.770;2024-03-25T14:29:51;15.30;1.00
30764;DHT22;17497;51.476;7.770;2024-03-25T14:32:21;15.20;99.90
30764;DHT22;17497;51.476;7.770;2024-03-25T14:34:47;16.30;1.00
30764;DHT22;17497;51.476;7.770;2024-03-25T14:37:13;17.90;1.00
30764;DHT22;17497;51.476;7.770;2024-03-25T14:39:39;19.60;1.00
30764;DHT22;17497;51.476;7.770;2024-03-25T14:42:07;21.10;1.00
30764;DHT22;17497;51.476;7.770;2024-03-25T14:44:33;21.90;1.00
30764;DHT22;17497;51.476;7.770;2024-03-25T14:46:58;22.30;1.00
30764;DHT22;17497;51.476;7.770;2024-03-25T14:49:24;22.80;1.00
30764;DHT22;17497;51.476;7.770;2024-03-25T14:51:50;22.30;1.00
30764;DHT22;17497;51.476;7.770;2024-03-25T14:54:17;21.50;1.00
30764;DHT22;17497;51.476;7.770;2024-03-25T14:56:43;20.70;1.00
30764;DHT22;17497;51.476;7.770;2024-03-25T14:59:09;19.90;1.00
30764;DHT22;17497;51.476;7.770;2024-03-25T15:01:35;19.40;1.00
30764;DHT22;17497;51.476;7.770;2024-03-25T15:04:02;19.10;1.00
30764;DHT22;17497;51.476;7.770;2024-03-25T15:06:28;20.10;1.00
30764;DHT22;17497;51.476;7.770;2024-03-25T15:08:54;21.40;1.00
30764;DHT22;17497;51.476;7.770;2024-03-25T15:11:20;21.90;1.00
30764;DHT22;17497;51.476;7.770;2024-03-25T15:13:46;22.90;1.00
30764;DHT22;17497;51.476;7.770;2024-03-25T15:16:11;23.90;1.00
30764;DHT22;17497;51.476;7.770;2024-03-25T15:18:37;23.80;1.00
30764;DHT22;17497;51.476;7.770;2024-03-25T15:21:04;24.00;1.00
30764;DHT22;17497;51.476;7.770;2024-03-25T15:23:30;24.20;1.00
30764;DHT22;17497;51.476;7.770;2024-03-25T15:25:56;24.10;1.00
30764;DHT22;17497;51.476;7.770;2024-03-25T15:28:23;24.00;1.00
30764;DHT22;17497;51.476;7.770;2024-03-25T15:30:49;24.40;1.00
30764;DHT22;17497;51.476;7.770;2024-03-25T15:33:15;24.90;1.00
30764;DHT22;17497;51.476;7.770;2024-03-25T15:35:41;25.00;1.00
30764;DHT22;17497;51.476;7.770;2024-03-25T15:38:07;24.50;1.00
30764;DHT22;17497;51.476;7.770;2024-03-25T15:40:34;25.20;26.70
30764;DHT22;17497;51.476;7.770;2024-03-25T15:43:00;25.10;33.20
30764;DHT22;17497;51.476;7.770;2024-03-25T15:45:27;25.10;34.40